Time,TemperatureF,DewpointF,PressureIn,WindDirection,WindDirectionDegrees,WindSpeedMPH,WindSpeedGustMPH,Humidity,HourlyPrecipIn,Conditions,Clouds,dailyrainin,SolarRadiationWatts/m^2,SoftwareType,DateUTC
2013-03-11 00:00:00,48.2,28.4,30.27,South,182,2.0,2.0,46,0.00,,,0.00,0,Wunderground v.1.15,2013-03-11 04:00:00,
2013-03-11 00:02:00,48.2,28.9,30.27,South,191,2.0,2.0,47,0.00,,,0.00,0,Wunderground v.1.15,2013-03-11 04:02:00,
2013-03-11 00:06:00,48.2,29.4,30.27,SSE,162,2.0,5.0,48,0.00,,,0.00,0,Wunderground v.1.15,2013-03-11 04:06:00,
2013-03-11 00:12:00,47.9,28.6,30.27,SSE,157,2.0,2.0,47,0.00,,,0.00,0,Wunderground v.1.15,2013-03-11 04:12:00,
2013-03-11 00:14:00,48.0,27.1,30.26,South,172,2.0,2.0,44,0.00,,,0.00,0,Wunderground v.1.15,2013-03-11 04:14:00,
2013-03-11 00:20:00,48.0,27.6,30.26,SSE,161,2.0,2.0,45,0.00,,,0.00,0,Wunderground v.1.15,2013-03-11 04:20:00,
2013-03-11 00:26:00,48.2,27.8,30.26,SSE,167,2.0,6.0,45,0.00,,,0.00,0,Wunderground v.1.15,2013-03-11 04:26:00,
2013-03-11 00:32:00,48.2,27.8,30.25,SSW,199,2.0,5.0,45,0.00,,,0.00,0,Wunderground v.1.15,2013-03-11 04:32:00,
2013-03-11 00:38:00,48.2,27.8,30.25,SSW,210,2.0,5.0,45,0.00,,,0.00,0,Wunderground v.1.15,2013-03-11 04:38:00,
2013-03-11 00:44:00,48.0,28.2,30.25,SSW,210,2.0,2.0,46,0.00,,,0.00,0,Wunderground v.1.15,2013-03-11 04:44:00,
2013-03-11 00:50:00,47.9,27.6,30.25,SSW,193,2.0,2.0,45,0.00,,,0.00,0,Wunderground v.1.15,2013-03-11 04:50:00,
2013-03-11 00:56:00,47.7,27.4,30.25,SSW,193,1.0,2.0,45,0.00,,,0.00,0,Wunderground v.1.15,2013-03-11 04:56:00,
2013-03-11 01:02:00,47.3,29.6,30.25,SSW,193,0.0,1.0,50,0.00,,,0.00,0,Wunderground v.1.15,2013-03-11 05:02:00,
2013-03-11 01:08:00,46.7,29.0,30.25,SSW,193,1.0,2.0,50,0.00,,,0.00,0,Wunderground v.1.15,2013-03-11 05:08:00,
2013-03-11 01:14:00,46.1,30.4,30.25,SSW,193,1.0,1.0,54,0.00,,,0.00,0,Wunderground v.1.15,2013-03-11 05:14:00,
2013-03-11 01:20:00,45.5,30.3,30.25,SSW,193,0.0,0.0,55,0.00,,,0.00,0,Wunderground v.1.15,2013-03-11 05:20:00,
2013-03-11 01:28:00,44.8,30.5,30.25,SSW,193,0.0,0.0,57,0.00,,,0.00,0,Wunderground v.1.15,2013-03-11 05:28:00,
2013-03-11 01:34:00,44.1,30.7,30.25,SSW,193,0.0,0.0,59,0.00,,,0.00,0,Wunderground v.1.15,2013-03-11 05:34:00,
2013-03-11 01:40:00,43.5,30.1,30.25,SSW,193,0.0,0.0,59,0.00,,,0.00,0,Wunderground v.1.15,2013-03-11 05:40:00,
2013-03-11 01:46:00,43.1,29.7,30.25,SSW,193,0.0,0.0,59,0.00,,,0.00,0,Wunderground v.1.15,2013-03-11 05:46:00,
2013-03-11 01:52:00,42.6,29.7,30.25,SSW,193,0.0,0.0,60,0.00,,,0.00,0,Wunderground v.1.15,2013-03-11 05:52:00,
2013-03-11 01:58:00,42.2,29.3,30.25,SSW,193,0.0,0.0,60,0.00,,,0.00,0,Wunderground v.1.15,2013-03-11 05:58:00,
2013-03-11 02:04:00,41.9,30.2,30.25,SSW,193,0.0,0.0,63,0.00,,,0.00,0,Wunderground v.1.15,2013-03-11 06:04:00,
2013-03-11 02:10:00,41.5,30.6,30.25,SSW,193,0.0,0.0,65,0.00,,,0.00,0,Wunderground v.1.15,2013-03-11 06:10:00,
2013-03-11 02:18:00,41.1,31.0,30.25,SSW,193,0.0,0.0,67,0.00,,,0.00,0,Wunderground v.1.15,2013-03-11 06:18:00,
2013-03-11 02:24:00,40.9,31.5,30.25,SSW,193,0.0,0.0,69,0.00,,,0.00,0,Wunderground v.1.15,2013-03-11 06:24:00,
2013-03-11 02:30:00,40.6,30.9,30.25,SSW,193,0.0,1.0,68,0.00,,,0.00,0,Wunderground v.1.15,2013-03-11 06:30:00,
2013-03-11 02:38:00,40.3,29.8,30.25,SSW,193,1.0,2.0,66,0.00,,,0.00,0,Wunderground v.1.15,2013-03-11 06:38:00,
2013-03-11 02:44:00,40.2,30.1,30.24,SSW,193,1.0,2.0,67,0.00,,,0.00,0,Wunderground v.1.15,2013-03-11 06:44:00,
2013-03-11 02:50:00,40.1,30.4,30.24,South,172,2.0,2.0,68,0.00,,,0.00,0,Wunderground v.1.15,2013-03-11 06:50:00,
2013-03-11 02:58:00,40.1,30.4,30.24,SE,140,3.0,5.0,68,0.00,,,0.00,0,Wunderground v.1.15,2013-03-11 06:58:00,
2013-03-11 03:04:00,40.1,30.0,30.23,SSE,152,3.0,3.0,67,0.00,,,0.00,0,Wunderground v.1.15,2013-03-11 07:04:00,
2013-03-11 03:10:00,40.3,29.8,30.23,SSE,152,2.0,2.0,66,0.00,,,0.00,0,Wunderground v.1.15,2013-03-11 07:10:00,
2013-03-11 03:18:00,40.3,29.8,30.23,SSE,152,2.0,5.0,66,0.00,,,0.00,0,Wunderground v.1.15,2013-03-11 07:18:00,
2013-03-11 03:24:00,40.2,30.5,30.23,SSE,152,0.0,1.0,68,0.00,,,0.00,0,Wunderground v.1.15,2013-03-11 07:24:00,
2013-03-11 03:30:00,39.8,30.5,30.23,SSE,152,0.0,0.0,69,0.00,,,0.00,0,Wunderground v.1.15,2013-03-11 07:30:00,
2013-03-11 03:36:00,39.5,30.5,30.23,SSE,152,0.0,0.0,70,0.00,,,0.00,0,Wunderground v.1.15,2013-03-11 07:36:00,
2013-03-11 03:42:00,39.2,30.2,30.23,SSE,152,0.0,0.0,70,0.00,,,0.00,0,Wunderground v.1.15,2013-03-11 07:42:00,
2013-03-11 03:48:00,39.1,30.5,30.22,SSE,152,0.0,0.0,71,0.00,,,0.00,0,Wunderground v.1.15,2013-03-11 07:48:00,
2013-03-11 03:54:00,38.8,30.5,30.22,SSE,152,0.0,0.0,72,0.00,,,0.00,0,Wunderground v.1.15,2013-03-11 07:54:00,
2013-03-11 04:00:00,38.6,30.7,30.22,SSE,152,0.0,0.0,73,0.00,,,0.00,0,Wunderground v.1.15,2013-03-11 08:00:00,
2013-03-11 04:08:00,38.3,30.7,30.22,SSE,152,0.0,0.0,74,0.00,,,0.00,0,Wunderground v.1.15,2013-03-11 08:08:00,
2013-03-11 04:14:00,38.2,30.3,30.20,SSE,152,0.0,0.0,73,0.00,,,0.00,0,Wunderground v.1.15,2013-03-11 08:14:00,
2013-03-11 04:20:00,38.0,30.1,30.20,SSE,152,0.0,0.0,73,0.00,,,0.00,0,Wunderground v.1.15,2013-03-11 08:20:00,
2013-03-11 04:28:00,37.8,30.6,30.20,SSE,152,0.0,0.0,75,0.00,,,0.00,0,Wunderground v.1.15,2013-03-11 08:28:00,
2013-03-11 04:34:00,37.6,30.4,30.20,SSE,152,0.0,0.0,75,0.00,,,0.00,0,Wunderground v.1.15,2013-03-11 08:34:00,
2013-03-11 04:40:00,37.3,30.1,30.20,SSE,152,0.0,0.0,75,0.00,,,0.00,0,Wunderground v.1.15,2013-03-11 08:40:00,
2013-03-11 04:46:00,37.2,30.3,30.20,SSE,152,0.0,0.0,76,0.00,,,0.00,0,Wunderground v.1.15,2013-03-11 08:46:00,
2013-03-11 04:52:00,37.0,30.1,30.20,SSE,152,0.0,0.0,76,0.00,,,0.00,0,Wunderground v.1.15,2013-03-11 08:52:00,
2013-03-11 04:58:00,37.0,30.5,30.20,SSE,152,0.0,0.0,77,0.00,,,0.00,0,Wunderground v.1.15,2013-03-11 08:58:00,
2013-03-11 05:04:00,36.9,30.4,30.19,SSE,152,0.0,0.0,77,0.00,,,0.00,0,Wunderground v.1.15,2013-03-11 09:04:00,
2013-03-11 05:10:00,36.8,30.3,30.19,SSE,152,0.0,0.0,77,0.00,,,0.00,0,Wunderground v.1.15,2013-03-11 09:10:00,
2013-03-11 05:16:00,36.8,30.6,30.20,SSE,152,0.0,0.0,78,0.00,,,0.00,0,Wunderground v.1.15,2013-03-11 09:16:00,
2013-03-11 05:22:00,36.6,30.7,30.20,SSE,152,0.0,0.0,79,0.00,,,0.00,0,Wunderground v.1.15,2013-03-11 09:22:00,
2013-03-11 05:28:00,36.6,30.7,30.20,SSE,152,0.0,0.0,79,0.00,,,0.00,0,Wunderground v.1.15,2013-03-11 09:28:00,
2013-03-11 05:34:00,36.5,30.6,30.19,SSE,152,0.0,0.0,79,0.00,,,0.00,0,Wunderground v.1.15,2013-03-11 09:34:00,
2013-03-11 05:40:00,36.5,30.6,30.19,SSE,152,0.0,0.0,79,0.00,,,0.00,0,Wunderground v.1.15,2013-03-11 09:40:00,
2013-03-11 05:48:00,36.5,30.9,30.19,SSE,152,0.0,0.0,80,0.00,,,0.00,0,Wunderground v.1.15,2013-03-11 09:48:00,
2013-03-11 05:54:00,36.5,30.9,30.19,SSE,152,0.0,0.0,80,0.00,,,0.00,0,Wunderground v.1.15,2013-03-11 09:54:00,
2013-03-11 06:00:00,36.5,31.2,30.19,SSE,152,0.0,0.0,81,0.00,,,0.00,0,Wunderground v.1.15,2013-03-11 10:00:00,
2013-03-11 06:06:00,36.5,31.2,30.19,SSE,152,0.0,0.0,81,0.00,,,0.00,0,Wunderground v.1.15,2013-03-11 10:06:00,
2013-03-11 06:12:00,36.3,31.0,30.19,SSE,152,0.0,0.0,81,0.00,,,0.00,0,Wunderground v.1.15,2013-03-11 10:12:00,
2013-03-11 06:18:00,36.3,31.0,30.19,SSE,152,0.0,0.0,81,0.00,,,0.00,0,Wunderground v.1.15,2013-03-11 10:18:00,
2013-03-11 06:24:00,36.5,31.2,30.19,SSE,152,0.0,0.0,81,0.00,,,0.00,0,Wunderground v.1.15,2013-03-11 10:24:00,
2013-03-11 06:30:00,36.8,31.8,30.19,SSE,152,1.0,2.0,82,0.00,,,0.00,0,Wunderground v.1.15,2013-03-11 10:30:00,
2013-03-11 06:38:00,37.2,32.2,30.19,SSE,152,2.0,3.0,82,0.00,,,0.00,0,Wunderground v.1.15,2013-03-11 10:38:00,
2013-03-11 06:44:00,37.2,32.2,30.18,SSE,147,2.0,2.0,82,0.00,,,0.00,0,Wunderground v.1.15,2013-03-11 10:44:00,
2013-03-11 06:50:00,37.2,32.2,30.18,SSE,147,3.0,3.0,82,0.00,,,0.00,0,Wunderground v.1.15,2013-03-11 10:50:00,
2013-03-11 06:56:00,37.2,32.5,30.18,SSE,147,2.0,3.0,83,0.00,,,0.00,0,Wunderground v.1.15,2013-03-11 10:56:00,
2013-03-11 07:02:00,37.2,32.5,30.18,SSE,147,1.0,2.0,83,0.00,,,0.00,0,Wunderground v.1.15,2013-03-11 11:02:00,
2013-03-11 07:08:00,37.2,32.8,30.18,SSE,147,1.0,2.0,84,0.00,,,0.00,0,Wunderground v.1.15,2013-03-11 11:08:00,
2013-03-11 07:14:00,37.2,32.8,30.19,SSE,147,0.0,0.0,84,0.00,,,0.00,0,Wunderground v.1.15,2013-03-11 11:14:00,
2013-03-11 07:20:00,37.3,33.2,30.19,SSE,147,1.0,1.0,85,0.00,,,0.00,0,Wunderground v.1.15,2013-03-11 11:20:00,
2013-03-11 07:26:00,37.3,33.2,30.19,SSE,147,0.0,1.0,85,0.00,,,0.00,5,Wunderground v.1.15,2013-03-11 11:26:00,
2013-03-11 07:32:00,37.5,33.4,30.20,SSE,147,0.0,0.0,85,0.00,,,0.00,5,Wunderground v.1.15,2013-03-11 11:32:00,
2013-03-11 07:38:00,37.8,34.0,30.20,SSE,147,0.0,0.0,86,0.00,,,0.00,7,Wunderground v.1.15,2013-03-11 11:38:00,
2013-03-11 07:44:00,38.0,34.5,30.19,SSE,147,0.0,0.0,87,0.00,,,0.00,14,Wunderground v.1.15,2013-03-11 11:44:00,
2013-03-11 07:50:00,38.2,34.7,30.19,SSE,147,0.0,0.0,87,0.00,,,0.00,16,Wunderground v.1.15,2013-03-11 11:50:00,
2013-03-11 07:58:00,38.5,34.7,30.19,SSE,147,0.0,0.0,86,0.00,,,0.00,30,Wunderground v.1.15,2013-03-11 11:58:00,
2013-03-11 08:04:00,38.8,35.0,30.20,SSE,147,0.0,0.0,86,0.00,,,0.00,44,Wunderground v.1.15,2013-03-11 12:04:00,
2013-03-11 08:10:00,38.9,35.4,30.20,SSE,147,0.0,0.0,87,0.00,,,0.00,49,Wunderground v.1.15,2013-03-11 12:10:00,
2013-03-11 08:18:00,39.5,36.0,30.19,ESE,119,0.0,0.0,87,0.00,,,0.00,58,Wunderground v.1.15,2013-03-11 12:18:00,
2013-03-11 08:24:00,39.8,36.2,30.19,ESE,109,0.0,0.0,87,0.00,,,0.00,55,Wunderground v.1.15,2013-03-11 12:24:00,
2013-03-11 08:30:00,40.2,36.6,30.20,ESE,109,0.0,0.0,87,0.00,,,0.00,79,Wunderground v.1.15,2013-03-11 12:30:00,
2013-03-11 08:36:00,40.8,37.5,30.20,ESE,109,0.0,2.0,88,0.00,,,0.00,93,Wunderground v.1.15,2013-03-11 12:36:00,
2013-03-11 08:42:00,41.3,38.0,30.20,ESE,121,1.0,2.0,88,0.00,,,0.00,120,Wunderground v.1.15,2013-03-11 12:42:00,
2013-03-11 08:48:00,42.1,38.8,30.19,ESE,121,1.0,2.0,88,0.00,,,0.00,134,Wunderground v.1.15,2013-03-11 12:48:00,
2013-03-11 08:54:00,42.6,39.3,30.19,ESE,121,1.0,2.0,88,0.00,,,0.00,150,Wunderground v.1.15,2013-03-11 12:54:00,
2013-03-11 09:00:00,43.3,40.0,30.19,ESE,121,1.0,1.0,88,0.00,,,0.00,172,Wunderground v.1.15,2013-03-11 13:00:00,
2013-03-11 09:08:00,44.8,41.8,30.19,ESE,121,1.0,1.0,89,0.00,,,0.00,187,Wunderground v.1.15,2013-03-11 13:08:00,
2013-03-11 09:14:00,45.8,43.0,30.19,ESE,121,1.0,1.0,90,0.00,,,0.00,188,Wunderground v.1.15,2013-03-11 13:14:00,
2013-03-11 09:20:00,47.0,44.2,30.19,ESE,121,1.0,1.0,90,0.00,,,0.00,239,Wunderground v.1.15,2013-03-11 13:20:00,
2013-03-11 09:26:00,48.2,45.4,30.19,ESE,121,1.0,2.0,90,0.00,,,0.00,229,Wunderground v.1.15,2013-03-11 13:26:00,
2013-03-11 09:32:00,49.2,46.1,30.19,SE,138,2.0,3.0,89,0.00,,,0.00,227,Wunderground v.1.15,2013-03-11 13:32:00,
2013-03-11 09:38:00,49.9,46.2,30.19,SSE,148,2.0,5.0,87,0.00,,,0.00,234,Wunderground v.1.15,2013-03-11 13:38:00,
2013-03-11 09:44:00,51.3,46.9,30.19,ESE,109,2.0,2.0,85,0.00,,,0.00,294,Wunderground v.1.15,2013-03-11 13:44:00,
2013-03-11 09:50:00,52.3,47.3,30.19,South,189,2.0,2.0,83,0.00,,,0.00,269,Wunderground v.1.15,2013-03-11 13:50:00,
2013-03-11 09:58:00,53.2,47.8,30.19,South,189,1.0,2.0,82,0.00,,,0.00,271,Wunderground v.1.15,2013-03-11 13:58:00,
2013-03-11 10:04:00,53.9,48.5,30.18,SE,136,2.0,6.0,82,0.00,,,0.00,352,Wunderground v.1.15,2013-03-11 14:04:00,
2013-03-11 10:10:00,55.0,48.9,30.18,South,185,5.0,5.0,80,0.00,,,0.00,396,Wunderground v.1.15,2013-03-11 14:10:00,
2013-03-11 10:16:00,55.4,49.0,30.18,South,189,5.0,5.0,79,0.00,,,0.00,361,Wunderground v.1.15,2013-03-11 14:16:00,
2013-03-11 10:22:00,56.2,49.4,30.18,South,181,4.0,4.0,78,0.00,,,0.00,362,Wunderground v.1.15,2013-03-11 14:22:00,
2013-03-11 10:28:00,56.6,49.5,30.18,SSE,167,4.0,5.0,77,0.00,,,0.00,405,Wunderground v.1.15,2013-03-11 14:28:00,
2013-03-11 10:34:00,57.0,49.9,30.17,South,184,4.0,4.0,77,0.00,,,0.00,357,Wunderground v.1.15,2013-03-11 14:34:00,
2013-03-11 10:40:00,57.5,50.3,30.17,SSW,198,4.0,7.0,77,0.00,,,0.00,370,Wunderground v.1.15,2013-03-11 14:40:00,
2013-03-11 10:48:00,58.0,50.1,30.16,South,189,4.0,7.0,75,0.00,,,0.00,401,Wunderground v.1.15,2013-03-11 14:48:00,
2013-03-11 10:54:00,58.3,50.0,30.16,South,171,5.0,5.0,74,0.00,,,0.00,341,Wunderground v.1.15,2013-03-11 14:54:00,
2013-03-11 11:00:00,59.2,50.9,30.16,South,186,4.0,7.0,74,0.00,,,0.00,406,Wunderground v.1.15,2013-03-11 15:00:00,
2013-03-11 11:08:00,59.8,50.4,30.16,South,171,4.0,7.0,71,0.00,,,0.00,482,Wunderground v.1.15,2013-03-11 15:08:00,
2013-03-11 11:14:00,61.0,50.8,30.15,South,186,4.0,7.0,69,0.00,,,0.00,524,Wunderground v.1.15,2013-03-11 15:14:00,
2013-03-11 11:20:00,61.8,51.9,30.15,SSE,168,4.0,10.0,70,0.00,,,0.00,461,Wunderground v.1.15,2013-03-11 15:20:00,
2013-03-11 11:28:00,62.3,50.4,30.15,South,181,4.0,10.0,65,0.00,,,0.00,519,Wunderground v.1.15,2013-03-11 15:28:00,
2013-03-11 11:34:00,63.4,51.0,30.15,SSW,209,5.0,7.0,64,0.00,,,0.00,552,Wunderground v.1.15,2013-03-11 15:34:00,
2013-03-11 11:41:00,63.7,50.9,30.15,SW,215,7.0,7.0,63,0.00,,,0.00,482,Wunderground v.1.15,2013-03-11 15:41:00,
2013-03-11 11:46:00,64.5,50.7,30.15,SW,224,7.0,12.0,61,0.00,,,0.00,663,Wunderground v.1.15,2013-03-11 15:46:00,
2013-03-11 11:52:00,65.8,50.1,30.15,South,174,6.0,6.0,57,0.00,,,0.00,589,Wunderground v.1.15,2013-03-11 15:52:00,
2013-03-11 11:58:00,66.3,49.6,30.15,SSW,203,6.0,12.0,55,0.00,,,0.00,716,Wunderground v.1.15,2013-03-11 15:58:00,
2013-03-11 12:04:00,66.1,50.4,30.14,SSE,161,8.0,10.0,57,0.00,,,0.00,556,Wunderground v.1.15,2013-03-11 16:04:00,
2013-03-11 12:10:00,65.6,49.5,30.14,SSE,160,8.0,8.0,56,0.00,,,0.00,429,Wunderground v.1.15,2013-03-11 16:10:00,
2013-03-11 12:16:00,65.3,49.7,30.13,South,188,9.0,10.0,57,0.00,,,0.00,422,Wunderground v.1.15,2013-03-11 16:16:00,
2013-03-11 12:22:00,65.6,50.0,30.13,SSW,210,8.0,8.0,57,0.00,,,0.00,428,Wunderground v.1.15,2013-03-11 16:22:00,
2013-03-11 12:28:00,66.1,49.9,30.13,WSW,243,8.0,10.0,56,0.00,,,0.00,389,Wunderground v.1.15,2013-03-11 16:28:00,
2013-03-11 12:34:00,66.9,50.7,30.13,SW,234,7.0,7.0,56,0.00,,,0.00,632,Wunderground v.1.15,2013-03-11 16:34:00,
2013-03-11 12:40:00,67.6,51.3,30.13,West,278,7.0,7.0,56,0.00,,,0.00,632,Wunderground v.1.15,2013-03-11 16:40:00,
2013-03-11 12:48:00,67.9,50.6,30.13,South,181,7.0,14.0,54,0.00,,,0.00,391,Wunderground v.1.15,2013-03-11 16:48:00,
2013-03-11 12:54:00,68.3,51.0,30.13,SSW,195,8.0,12.0,54,0.00,,,0.00,691,Wunderground v.1.15,2013-03-11 16:54:00,
2013-03-11 13:00:00,68.1,50.8,30.12,SSW,212,7.0,10.0,54,0.00,,,0.00,691,Wunderground v.1.15,2013-03-11 17:00:00,
2013-03-11 13:08:00,67.4,50.2,30.12,SW,234,8.0,10.0,54,0.00,,,0.00,347,Wunderground v.1.15,2013-03-11 17:08:00,
2013-03-11 13:14:00,67.4,50.2,30.11,SSW,206,8.0,8.0,54,0.00,,,0.00,336,Wunderground v.1.15,2013-03-11 17:14:00,
2013-03-11 13:20:00,67.6,50.4,30.11,South,189,8.0,8.0,54,0.00,,,0.00,435,Wunderground v.1.15,2013-03-11 17:20:00,
2013-03-11 13:28:00,68.8,50.5,30.11,SSW,210,7.0,12.0,52,0.00,,,0.00,373,Wunderground v.1.15,2013-03-11 17:28:00,
2013-03-11 13:34:00,68.8,50.5,30.10,SSW,212,8.0,14.0,52,0.00,,,0.00,387,Wunderground v.1.15,2013-03-11 17:34:00,
2013-03-11 13:40:00,69.1,50.7,30.10,SW,226,7.0,7.0,52,0.00,,,0.00,306,Wunderground v.1.15,2013-03-11 17:40:00,
2013-03-11 13:46:00,69.1,49.7,30.10,WNW,287,8.0,13.0,50,0.00,,,0.00,306,Wunderground v.1.15,2013-03-11 17:46:00,
2013-03-11 13:52:00,69.1,49.7,30.10,South,188,9.0,9.0,50,0.00,,,0.00,347,Wunderground v.1.15,2013-03-11 17:52:00,
2013-03-11 13:58:00,69.1,49.1,30.10,SSW,213,6.0,14.0,49,0.00,,,0.00,243,Wunderground v.1.15,2013-03-11 17:58:00,
2013-03-11 14:04:00,68.8,48.9,30.08,SW,227,7.0,10.0,49,0.00,,,0.00,230,Wunderground v.1.15,2013-03-11 18:04:00,
2013-03-11 14:10:00,69.3,49.9,30.08,SSW,192,6.0,10.0,50,0.00,,,0.00,317,Wunderground v.1.15,2013-03-11 18:10:00,
2013-03-11 14:16:00,70.8,50.7,30.08,SW,227,5.0,12.0,49,0.00,,,0.00,412,Wunderground v.1.15,2013-03-11 18:16:00,
2013-03-11 14:22:00,70.8,49.6,30.08,WSW,239,9.0,14.0,47,0.00,,,0.00,676,Wunderground v.1.15,2013-03-11 18:22:00,
2013-03-11 14:28:00,69.1,49.7,30.08,South,189,10.0,14.0,50,0.00,,,0.00,204,Wunderground v.1.15,2013-03-11 18:28:00,
2013-03-11 14:34:00,68.9,49.5,30.07,SSW,206,6.0,7.0,50,0.00,,,0.00,238,Wunderground v.1.15,2013-03-11 18:34:00,
2013-03-11 14:41:00,68.9,49.5,30.07,South,185,6.0,10.0,50,0.00,,,0.00,215,Wunderground v.1.15,2013-03-11 18:41:00,
2013-03-11 14:46:00,68.9,49.5,30.06,SW,219,5.0,6.0,50,0.00,,,0.00,204,Wunderground v.1.15,2013-03-11 18:46:00,
2013-03-11 14:52:00,69.6,51.2,30.06,South,189,4.0,5.0,52,0.00,,,0.00,204,Wunderground v.1.15,2013-03-11 18:52:00,
2013-03-11 14:58:00,69.6,49.6,30.06,SSW,213,6.0,10.0,49,0.00,,,0.00,341,Wunderground v.1.15,2013-03-11 18:58:00,
2013-03-11 15:04:00,69.6,50.1,30.05,South,178,9.0,11.0,50,0.00,,,0.00,266,Wunderground v.1.15,2013-03-11 19:04:00,
2013-03-11 15:10:00,69.1,49.1,30.05,SW,222,9.0,9.0,49,0.00,,,0.00,220,Wunderground v.1.15,2013-03-11 19:10:00,
2013-03-11 15:18:00,70.1,49.5,30.04,SSE,161,7.0,14.0,48,0.00,,,0.00,614,Wunderground v.1.15,2013-03-11 19:18:00,
2013-03-11 15:24:00,69.6,50.1,30.04,SW,219,9.0,12.0,50,0.00,,,0.00,331,Wunderground v.1.15,2013-03-11 19:24:00,
2013-03-11 15:30:00,69.3,49.3,30.03,SSW,206,10.0,10.0,49,0.00,,,0.00,222,Wunderground v.1.15,2013-03-11 19:30:00,
2013-03-11 15:38:00,69.3,49.9,30.03,South,186,8.0,12.0,50,0.00,,,0.00,311,Wunderground v.1.15,2013-03-11 19:38:00,
2013-03-11 15:44:00,69.1,49.1,30.02,SW,222,9.0,10.0,49,0.00,,,0.00,282,Wunderground v.1.15,2013-03-11 19:44:00,
2013-03-11 15:50:00,69.1,49.7,30.02,WSW,248,8.0,9.0,50,0.00,,,0.00,243,Wunderground v.1.15,2013-03-11 19:50:00,
2013-03-11 15:58:00,68.8,49.4,30.02,SSW,203,8.0,12.0,50,0.00,,,0.00,250,Wunderground v.1.15,2013-03-11 19:58:00,
2013-03-11 16:04:00,68.6,49.2,30.02,SW,223,9.0,12.0,50,0.00,,,0.00,204,Wunderground v.1.15,2013-03-11 20:04:00,
2013-03-11 16:10:00,68.3,49.5,30.02,SW,229,9.0,11.0,51,0.00,,,0.00,229,Wunderground v.1.15,2013-03-11 20:10:00,
2013-03-11 16:16:00,68.4,50.1,30.01,SW,229,9.0,12.0,52,0.00,,,0.00,229,Wunderground v.1.15,2013-03-11 20:16:00,
2013-03-11 16:22:00,68.3,50.0,30.01,SSW,192,6.0,10.0,52,0.00,,,0.00,114,Wunderground v.1.15,2013-03-11 20:22:00,
2013-03-11 16:28:00,67.9,50.1,30.01,ESE,106,5.0,10.0,53,0.00,,,0.00,99,Wunderground v.1.15,2013-03-11 20:28:00,
2013-03-11 16:34:00,67.8,50.5,30.00,SW,224,6.0,10.0,54,0.00,,,0.00,120,Wunderground v.1.15,2013-03-11 20:34:00,
2013-03-11 16:40:00,67.4,50.7,30.00,South,191,8.0,8.0,55,0.00,,,0.00,114,Wunderground v.1.15,2013-03-11 20:40:00,
2013-03-11 16:46:00,67.4,50.7,30.00,SE,144,7.0,8.0,55,0.00,,,0.00,183,Wunderground v.1.15,2013-03-11 20:46:00,
2013-03-11 16:52:00,67.4,51.2,30.00,SSW,196,8.0,12.0,56,0.00,,,0.00,114,Wunderground v.1.15,2013-03-11 20:52:00,
2013-03-11 16:58:00,67.3,51.1,30.00,South,169,8.0,12.0,56,0.00,,,0.00,113,Wunderground v.1.15,2013-03-11 20:58:00,
2013-03-11 17:04:00,67.3,51.1,30.00,South,182,8.0,12.0,56,0.00,,,0.00,104,Wunderground v.1.15,2013-03-11 21:04:00,
2013-03-11 17:10:00,67.1,51.4,30.00,WSW,247,7.0,7.0,57,0.00,,,0.00,49,Wunderground v.1.15,2013-03-11 21:10:00,
2013-03-11 17:16:00,67.1,51.4,30.00,SSW,202,4.0,7.0,57,0.00,,,0.00,51,Wunderground v.1.15,2013-03-11 21:16:00,
2013-03-11 17:22:00,66.8,51.5,30.00,South,178,4.0,7.0,58,0.00,,,0.00,83,Wunderground v.1.15,2013-03-11 21:22:00,
2013-03-11 17:28:00,66.8,51.5,30.00,SSW,205,5.0,10.0,58,0.00,,,0.00,86,Wunderground v.1.15,2013-03-11 21:28:00,
2013-03-11 17:34:00,66.6,51.4,30.01,SSW,198,5.0,6.0,58,0.00,,,0.00,79,Wunderground v.1.15,2013-03-11 21:34:00,
2013-03-11 17:40:00,66.6,51.8,30.01,South,175,6.0,7.0,59,0.00,,,0.00,79,Wunderground v.1.15,2013-03-11 21:40:00,
2013-03-11 17:46:00,66.4,51.6,30.02,South,174,7.0,9.0,59,0.00,,,0.00,81,Wunderground v.1.15,2013-03-11 21:46:00,
2013-03-11 17:54:00,66.3,51.5,30.02,WSW,240,7.0,19.0,59,0.00,,,0.00,81,Wunderground v.1.15,2013-03-11 21:54:00,
2013-03-11 18:01:00,66.3,52.0,30.01,SSW,198,8.0,8.0,60,0.00,,,0.00,72,Wunderground v.1.15,2013-03-11 22:01:00,
2013-03-11 18:08:00,66.1,51.8,30.01,South,191,8.0,12.0,60,0.00,,,0.00,56,Wunderground v.1.15,2013-03-11 22:08:00,
2013-03-11 18:14:00,66.0,51.7,30.00,SSW,195,8.0,10.0,60,0.00,,,0.00,62,Wunderground v.1.15,2013-03-11 22:14:00,
2013-03-11 18:20:00,65.8,51.5,30.00,South,189,9.0,10.0,60,0.00,,,0.00,56,Wunderground v.1.15,2013-03-11 22:20:00,
2013-03-11 18:26:00,65.6,51.3,30.00,South,191,10.0,11.0,60,0.00,,,0.00,44,Wunderground v.1.15,2013-03-11 22:26:00,
2013-03-11 18:32:00,65.5,51.7,30.00,SSE,164,8.0,12.0,61,0.00,,,0.00,32,Wunderground v.1.15,2013-03-11 22:32:00,
2013-03-11 18:38:00,65.3,51.5,30.00,South,176,7.0,12.0,61,0.00,,,0.00,30,Wunderground v.1.15,2013-03-11 22:38:00,
2013-03-11 18:44:00,65.2,51.8,29.99,South,176,6.0,6.0,62,0.00,,,0.00,23,Wunderground v.1.15,2013-03-11 22:44:00,
2013-03-11 18:50:00,65.2,51.8,29.99,SSE,157,6.0,6.0,62,0.00,,,0.00,19,Wunderground v.1.15,2013-03-11 22:50:00,
2013-03-11 18:56:00,65.0,52.1,29.99,SW,230,7.0,10.0,63,0.00,,,0.00,12,Wunderground v.1.15,2013-03-11 22:56:00,
2013-03-11 19:02:00,64.7,52.2,29.99,SSE,147,8.0,8.0,64,0.00,,,0.00,9,Wunderground v.1.15,2013-03-11 23:02:00,
2013-03-11 19:08:00,64.5,52.5,29.99,SSE,161,8.0,9.0,65,0.00,,,0.00,7,Wunderground v.1.15,2013-03-11 23:08:00,
2013-03-11 19:14:00,64.0,52.4,29.98,SSW,208,8.0,10.0,66,0.00,,,0.00,0,Wunderground v.1.15,2013-03-11 23:14:00,
2013-03-11 19:20:00,63.9,52.3,29.98,SSW,196,7.0,10.0,66,0.00,,,0.00,0,Wunderground v.1.15,2013-03-11 23:20:00,
2013-03-11 19:26:00,63.5,52.7,29.98,South,186,7.0,10.0,68,0.00,,,0.00,0,Wunderground v.1.15,2013-03-11 23:26:00,
2013-03-11 19:32:00,63.2,52.5,29.97,SSE,165,7.0,7.0,68,0.00,,,0.00,0,Wunderground v.1.15,2013-03-11 23:32:00,
2013-03-11 19:38:00,63.1,52.8,29.97,SE,137,6.0,7.0,69,0.00,,,0.00,0,Wunderground v.1.15,2013-03-11 23:38:00,
2013-03-11 19:44:00,62.7,52.8,29.98,South,188,7.0,10.0,70,0.00,,,0.00,0,Wunderground v.1.15,2013-03-11 23:44:00,
2013-03-11 19:50:00,62.6,52.7,29.98,South,188,7.0,10.0,70,0.00,,,0.00,0,Wunderground v.1.15,2013-03-11 23:50:00,
2013-03-11 19:58:00,62.6,52.7,29.98,SSE,154,7.0,10.0,70,0.00,,,0.00,0,Wunderground v.1.15,2013-03-11 23:58:00,
2013-03-11 20:04:00,62.4,52.9,29.98,SW,227,5.0,7.0,71,0.00,,,0.00,0,Wunderground v.1.15,2013-03-12 00:04:00,
2013-03-11 20:10:00,62.3,52.8,29.98,South,188,5.0,5.0,71,0.00,,,0.00,0,Wunderground v.1.15,2013-03-12 00:10:00,
2013-03-11 20:16:00,62.1,52.6,29.98,SSW,192,4.0,7.0,71,0.00,,,0.00,0,Wunderground v.1.15,2013-03-12 00:16:00,
2013-03-11 20:22:00,62.1,52.6,29.98,South,184,4.0,5.0,71,0.00,,,0.00,0,Wunderground v.1.15,2013-03-12 00:22:00,
2013-03-11 20:28:00,62.1,52.6,29.98,South,178,4.0,7.0,71,0.00,,,0.00,0,Wunderground v.1.15,2013-03-12 00:28:00,
2013-03-11 20:34:00,62.1,52.6,29.98,SSW,196,4.0,6.0,71,0.00,,,0.00,0,Wunderground v.1.15,2013-03-12 00:34:00,
2013-03-11 20:40:00,62.1,52.6,29.98,SSW,202,5.0,5.0,71,0.00,,,0.00,0,Wunderground v.1.15,2013-03-12 00:40:00,
2013-03-11 20:48:00,62.3,52.4,29.99,West,261,6.0,10.0,70,0.00,,,0.00,0,Wunderground v.1.15,2013-03-12 00:48:00,
2013-03-11 20:54:00,62.4,52.5,29.99,SSE,164,6.0,7.0,70,0.00,,,0.00,0,Wunderground v.1.15,2013-03-12 00:54:00,
2013-03-11 21:00:00,62.6,52.3,29.99,SSW,206,7.0,11.0,69,0.00,,,0.00,0,Wunderground v.1.15,2013-03-12 01:00:00,
2013-03-11 21:06:00,62.6,52.3,29.99,South,171,6.0,11.0,69,0.00,,,0.00,0,Wunderground v.1.15,2013-03-12 01:06:00,
2013-03-11 21:12:00,62.6,52.3,29.99,SW,224,6.0,7.0,69,0.00,,,0.00,0,Wunderground v.1.15,2013-03-12 01:12:00,
2013-03-11 21:18:00,62.6,52.3,29.99,South,175,7.0,7.0,69,0.00,,,0.00,0,Wunderground v.1.15,2013-03-12 01:18:00,
2013-03-11 21:24:00,62.6,52.3,29.99,South,186,7.0,11.0,69,0.00,,,0.00,0,Wunderground v.1.15,2013-03-12 01:24:00,
2013-03-11 21:30:00,62.6,52.3,29.99,SW,220,7.0,7.0,69,0.00,,,0.00,0,Wunderground v.1.15,2013-03-12 01:30:00,
2013-03-11 21:36:00,62.6,52.3,29.99,South,182,7.0,10.0,69,0.00,,,0.00,0,Wunderground v.1.15,2013-03-12 01:36:00,
2013-03-11 21:42:00,62.4,52.1,29.99,SSW,196,6.0,7.0,69,0.00,,,0.00,0,Wunderground v.1.15,2013-03-12 01:42:00,
2013-03-11 21:48:00,62.3,52.4,29.98,South,188,6.0,10.0,70,0.00,,,0.00,0,Wunderground v.1.15,2013-03-12 01:48:00,
2013-03-11 21:54:00,62.1,52.2,29.98,SW,224,5.0,6.0,70,0.00,,,0.00,0,Wunderground v.1.15,2013-03-12 01:54:00,
2013-03-11 22:00:00,62.1,52.2,29.98,SSW,208,5.0,5.0,70,0.00,,,0.00,0,Wunderground v.1.15,2013-03-12 02:00:00,
2013-03-11 22:08:00,62.0,52.1,29.98,SSW,205,5.0,10.0,70,0.00,,,0.00,0,Wunderground v.1.15,2013-03-12 02:08:00,
2013-03-11 22:14:00,62.0,52.1,29.98,SSW,205,5.0,7.0,70,0.00,,,0.00,0,Wunderground v.1.15,2013-03-12 02:14:00,
2013-03-11 22:20:00,62.0,52.5,29.98,South,184,5.0,6.0,71,0.00,,,0.00,0,Wunderground v.1.15,2013-03-12 02:20:00,
2013-03-11 22:26:00,61.8,52.3,29.98,SSE,151,5.0,10.0,71,0.00,,,0.00,0,Wunderground v.1.15,2013-03-12 02:26:00,
2013-03-11 22:32:00,61.8,52.3,29.97,SSW,198,5.0,5.0,71,0.00,,,0.00,0,Wunderground v.1.15,2013-03-12 02:32:00,
2013-03-11 22:38:00,61.6,52.5,29.97,SSW,210,5.0,7.0,72,0.00,,,0.00,0,Wunderground v.1.15,2013-03-12 02:38:00,
2013-03-11 22:44:00,61.6,52.5,29.97,SSW,202,5.0,8.0,72,0.00,,,0.00,0,Wunderground v.1.15,2013-03-12 02:44:00,
2013-03-11 22:50:00,61.5,52.4,29.97,SSW,196,5.0,12.0,72,0.00,,,0.00,0,Wunderground v.1.15,2013-03-12 02:50:00,
2013-03-11 22:56:00,61.3,52.2,29.97,SSW,193,5.0,7.0,72,0.00,,,0.00,0,Wunderground v.1.15,2013-03-12 02:56:00,
2013-03-11 23:02:00,61.3,52.6,29.97,South,176,5.0,7.0,73,0.00,,,0.00,0,Wunderground v.1.15,2013-03-12 03:02:00,
2013-03-11 23:08:00,61.3,52.6,29.97,SSW,206,4.0,7.0,73,0.00,,,0.00,0,Wunderground v.1.15,2013-03-12 03:08:00,
2013-03-11 23:14:00,61.2,52.5,29.97,South,184,4.0,7.0,73,0.00,,,0.00,0,Wunderground v.1.15,2013-03-12 03:14:00,
2013-03-11 23:20:00,61.2,52.5,29.97,South,186,4.0,4.0,73,0.00,,,0.00,0,Wunderground v.1.15,2013-03-12 03:20:00,
2013-03-11 23:28:00,61.0,52.7,29.97,South,172,5.0,7.0,74,0.00,,,0.00,0,Wunderground v.1.15,2013-03-12 03:28:00,
2013-03-11 23:34:00,60.9,52.6,29.97,SE,145,4.0,5.0,74,0.00,,,0.00,0,Wunderground v.1.15,2013-03-12 03:34:00,
2013-03-11 23:40:00,60.9,52.6,29.97,South,175,4.0,4.0,74,0.00,,,0.00,0,Wunderground v.1.15,2013-03-12 03:40:00,
2013-03-11 23:46:00,60.7,52.7,29.97,SSW,192,4.0,7.0,75,0.00,,,0.00,0,Wunderground v.1.15,2013-03-12 03:46:00,
2013-03-11 23:52:00,60.7,52.7,29.97,SSW,193,4.0,7.0,75,0.00,,,0.00,0,Wunderground v.1.15,2013-03-12 03:52:00,
2013-03-11 23:58:00,60.5,52.5,29.97,SW,233,4.0,7.0,75,0.00,,,0.00,0,Wunderground v.1.15,2013-03-12 03:58:00,